createdAt,value
2023-02-12T00:01:28.908Z,103129.75
2023-02-12T00:03:56.376Z,103131.53
2023-02-12T00:06:24.228Z,103126.22
2023-02-12T00:08:53.558Z,103123.56
2023-02-12T00:11:29.958Z,103122.66
2023-02-12T00:13:58.320Z,103117.59
2023-02-12T00:16:29.082Z,103117.53
2023-02-12T00:18:58.120Z,103120.25
2023-02-12T00:21:25.551Z,103125.56
2023-02-12T00:23:52.581Z,103122.06
2023-02-12T00:26:21.403Z,103116.81
2023-02-12T00:28:56.153Z,103122.13
2023-02-12T00:31:29.808Z,103114.19
2023-02-12T00:33:58.558Z,103114.19
2023-02-12T00:36:29.230Z,103110.66
2023-02-12T00:38:57.433Z,103114.25
2023-02-12T00:41:25.995Z,103108.19
2023-02-12T00:43:53.144Z,103115.41
2023-02-12T00:46:21.070Z,103112.75
2023-02-12T00:48:48.060Z,103104.03
2023-02-12T00:51:16.922Z,103106.69
2023-02-12T00:53:44.141Z,103103.25
2023-02-12T00:56:13.616Z,103109.50
2023-02-12T00:58:40.736Z,103106.94
2023-02-12T01:01:08.206Z,103100.78
2023-02-12T01:03:36.146Z,103102.72
2023-02-12T01:06:03.271Z,103108.13
2023-02-12T01:08:30.421Z,103105.63
2023-02-12T01:11:00.962Z,103113.72
2023-02-12T01:13:30.615Z,103113.66
2023-02-12T01:16:16.663Z,103110.19
2023-02-12T01:18:45.186Z,103110.25
2023-02-12T01:21:21.263Z,103104.16
2023-02-12T01:23:49.448Z,103107.72
2023-02-12T01:26:21.120Z,103110.38
2023-02-12T01:28:57.017Z,103114.09
2023-02-12T01:31:27.067Z,103108.81
2023-02-12T01:33:56.687Z,103109.66
2023-02-12T01:36:24.686Z,103112.34
2023-02-12T01:38:52.094Z,103117.63
2023-02-12T01:41:22.144Z,103114.09
2023-02-12T01:44:26.048Z,103126.53
2023-02-12T01:47:01.656Z,103117.78
2023-02-12T01:49:28.589Z,103117.81
2023-02-12T01:52:08.970Z,103100.16
2023-02-12T01:54:38.062Z,103105.44
2023-02-12T01:57:07.125Z,103116.03
2023-02-12T01:59:36.770Z,103114.22
2023-02-12T02:02:05.841Z,103103.63
2023-02-12T02:04:40.428Z,103109.06
2023-02-12T02:07:09.809Z,103097.56
2023-02-12T02:09:39.476Z,103098.44
2023-02-12T02:12:26.382Z,103099.34
2023-02-12T02:15:00.216Z,103098.44
2023-02-12T02:17:38.654Z,103089.66
2023-02-12T02:20:43.102Z,103087.88
2023-02-12T02:23:40.891Z,103082.59
2023-02-12T02:26:32.176Z,103069.41
2023-02-12T02:29:17.682Z,103073.84
2023-02-12T02:31:50.924Z,103089.72
2023-02-12T02:34:21.589Z,103070.31
2023-02-12T02:37:07.255Z,103070.38
2023-02-12T02:39:39.347Z,103078.31
2023-02-12T02:42:24.449Z,103076.53
2023-02-12T02:44:54.131Z,103079.28
2023-02-12T02:47:46.718Z,103076.69
2023-02-12T02:50:18.263Z,103070.59
2023-02-12T02:52:51.327Z,103075.94
2023-02-12T02:55:27.488Z,103077.72
2023-02-12T02:57:57.372Z,103067.19
2023-02-12T03:00:37.393Z,103068.97
2023-02-12T03:03:51.458Z,103069.03
2023-02-12T03:06:46.499Z,103064.72
2023-02-12T03:09:31.614Z,103063.91
2023-02-12T03:12:06.155Z,103048.94
2023-02-12T03:14:36.900Z,103059.56
2023-02-12T03:17:34.826Z,103051.75
2023-02-12T03:20:13.051Z,103051.78
2023-02-12T03:22:47.144Z,103050.03
2023-02-12T03:25:20.689Z,103051.81
2023-02-12T03:28:00.937Z,103054.56
2023-02-12T03:30:42.109Z,103059.88
2023-02-12T03:33:39.154Z,103051.09
2023-02-12T03:36:43.601Z,103054.59
2023-02-12T03:39:29.736Z,103053.75
2023-02-12T03:42:06.307Z,103047.59
2023-02-12T03:44:51.878Z,103041.56
2023-02-12T03:47:39.725Z,103046.88
2023-02-12T03:50:21.502Z,103051.25
2023-02-12T03:52:53.054Z,103046.03
2023-02-12T03:55:20.682Z,103048.66
2023-02-12T03:58:07.680Z,103042.50
2023-02-12T04:00:43.321Z,103053.06
2023-02-12T04:03:10.337Z,103049.53
2023-02-12T04:05:38.289Z,103046.94
2023-02-12T04:08:09.111Z,103056.69
2023-02-12T04:11:15.886Z,103052.25
2023-02-12T04:13:53.840Z,103047.00
2023-02-12T04:16:33.202Z,103043.50
2023-02-12T04:19:09.613Z,103059.34
2023-02-12T04:22:08.582Z,103057.59
2023-02-12T04:24:46.944Z,103055.00
2023-02-12T04:27:34.716Z,103059.41
2023-02-12T04:30:19.826Z,103061.16
2023-02-12T04:32:53.060Z,103067.31
2023-02-12T04:35:35.519Z,103062.09
2023-02-12T04:38:14.068Z,103057.69
2023-02-12T04:40:42.381Z,103058.56
2023-02-12T04:43:15.493Z,103056.81
2023-02-12T04:45:45.746Z,103057.72
2023-02-12T04:48:16.546Z,103059.47
2023-02-12T04:50:45.304Z,103057.66
2023-02-12T04:53:12.761Z,103053.25
2023-02-12T04:55:39.743Z,103048.88
2023-02-12T04:58:07.497Z,103054.16
2023-02-12T05:00:37.971Z,103052.41
2023-02-12T05:03:07.071Z,103050.66
2023-02-12T05:05:34.317Z,103055.06
2023-02-12T05:08:02.115Z,103050.66
2023-02-12T05:10:29.126Z,103055.13
2023-02-12T05:13:01.591Z,103052.53
2023-02-12T05:15:28.735Z,103050.78
2023-02-12T05:18:00.925Z,103049.06
2023-02-12T05:20:28.018Z,103055.22
2023-02-12T05:22:58.310Z,103057.91
2023-02-12T05:25:25.233Z,103054.44
2023-02-12T05:27:57.470Z,103057.03
2023-02-12T05:30:24.891Z,103054.44
2023-02-12T05:32:52.506Z,103056.22
2023-02-12T05:35:19.699Z,103061.56
2023-02-12T05:37:46.566Z,103058.03
2023-02-12T05:40:19.494Z,103056.31
2023-02-12T05:42:49.250Z,103057.19
2023-02-12T05:45:19.265Z,103057.22
2023-02-12T05:47:46.510Z,103062.50
2023-02-12T05:50:13.431Z,103061.63
2023-02-12T05:52:44.265Z,103058.97
2023-02-12T05:55:14.735Z,103056.47
2023-02-12T05:57:43.989Z,103065.31
2023-02-12T06:00:13.684Z,103062.69
2023-02-12T06:02:40.785Z,103061.84
2023-02-12T06:05:10.083Z,103060.97
2023-02-12T06:07:39.494Z,103059.25
2023-02-12T06:10:10.165Z,103063.78
2023-02-12T06:12:46.389Z,103063.72
2023-02-12T06:15:19.881Z,103060.28
2023-02-12T06:17:46.929Z,103063.75
2023-02-12T06:20:17.054Z,103069.91
2023-02-12T06:22:48.563Z,103063.75
2023-02-12T06:25:15.911Z,103064.63
2023-02-12T06:27:43.088Z,103057.59
2023-02-12T06:30:10.900Z,103062.00
2023-02-12T06:32:38.015Z,103064.69
2023-02-12T06:35:07.512Z,103069.06
2023-02-12T06:37:37.240Z,103066.47
2023-02-12T06:40:06.089Z,103075.25
2023-02-12T06:42:33.254Z,103060.31
2023-02-12T06:45:03.863Z,103076.16
2023-02-12T06:47:33.265Z,103077.91
2023-02-12T06:50:03.301Z,103072.63
2023-02-12T06:52:33.047Z,103079.63
2023-02-12T06:54:59.919Z,103070.81
2023-02-12T06:57:26.907Z,103076.91
2023-02-12T06:59:56.620Z,103081.09
2023-02-12T07:02:26.091Z,103074.59
2023-02-12T07:04:57.770Z,103080.38
2023-02-12T07:07:28.020Z,103082.34
2023-02-12T07:09:55.159Z,103088.69
2023-02-12T07:12:22.351Z,103083.44
2023-02-12T07:14:49.338Z,103086.78
2023-02-12T07:17:16.210Z,103084.88
2023-02-12T07:19:43.467Z,103089.84
2023-02-12T07:22:10.600Z,103091.06
2023-02-12T07:24:40.013Z,103091.19
2023-02-12T07:27:07.059Z,103095.25
2023-02-12T07:29:34.147Z,103099.06
2023-02-12T07:32:09.126Z,103102.72
2023-02-12T07:34:39.056Z,103102.09
2023-02-12T07:37:07.606Z,103102.72
2023-02-12T07:39:36.692Z,103098.22
2023-02-12T07:42:03.779Z,103106.41
2023-02-12T07:44:32.511Z,103114.13
2023-02-12T07:47:03.006Z,103109.00
2023-02-12T07:49:32.889Z,103113.75
2023-02-12T07:51:59.956Z,103112.53
2023-02-12T07:54:26.959Z,103111.03
2023-02-12T07:56:54.133Z,103115.28
2023-02-12T07:59:21.535Z,103111.53
2023-02-12T08:01:51.036Z,103115.38
2023-02-12T08:04:22.316Z,103123.25
2023-02-12T08:06:51.166Z,103132.94
2023-02-12T08:09:27.944Z,103127.72
2023-02-12T08:11:58.179Z,103125.69
2023-02-12T08:14:29.745Z,103118.19
2023-02-12T08:16:57.023Z,103126.72
2023-02-12T08:19:26.984Z,103129.44
2023-02-12T08:21:56.111Z,103128.91
2023-02-12T08:24:23.777Z,103134.25
2023-02-12T08:26:51.188Z,103139.16
2023-02-12T08:29:33.186Z,103131.78
2023-02-12T08:32:09.202Z,103130.78
2023-02-12T08:34:38.395Z,103138.75
2023-02-12T08:37:06.885Z,103137.56
2023-02-12T08:39:39.836Z,103140.81
2023-02-12T08:42:09.786Z,103141.41
2023-02-12T08:44:38.150Z,103139.88
2023-02-12T08:47:06.941Z,103134.25
2023-02-12T08:49:38.448Z,103146.06
2023-02-12T08:52:08.377Z,103137.09
2023-02-12T08:54:35.604Z,103139.66
2023-02-12T08:57:03.831Z,103134.44
2023-02-12T08:59:32.999Z,103145.69
2023-02-12T09:02:08.723Z,103142.41
2023-02-12T09:04:36.205Z,103145.47
2023-02-12T09:07:03.086Z,103149.28
2023-02-12T09:09:33.454Z,103146.25
2023-02-12T09:12:00.490Z,103135.19
2023-02-12T09:14:27.494Z,103151.94
2023-02-12T09:16:55.305Z,103142.63
2023-02-12T09:19:22.525Z,103140.88
2023-02-12T09:21:56.307Z,103148.25
2023-02-12T09:24:25.166Z,103144.19
2023-02-12T09:26:52.219Z,103143.81
2023-02-12T09:29:22.240Z,103143.31
2023-02-12T09:31:49.475Z,103138.66
2023-02-12T09:34:16.951Z,103135.69
2023-02-12T09:36:46.129Z,103133.56
2023-02-12T09:39:13.168Z,103141.59
2023-02-12T09:42:03.330Z,103140.09
2023-02-12T09:44:53.517Z,103140.31
2023-02-12T09:47:54.222Z,103130.91
2023-02-12T09:50:37.886Z,103134.59
2023-02-12T09:53:13.667Z,103131.25
2023-02-12T09:55:41.000Z,103125.75
2023-02-12T09:58:16.866Z,103122.84
2023-02-12T10:00:44.749Z,103124.88
2023-02-12T10:03:21.280Z,103128.78
2023-02-12T10:05:54.381Z,103134.09
2023-02-12T10:08:46.713Z,103141.00
2023-02-12T10:11:30.414Z,103131.59
2023-02-12T10:14:19.846Z,103129.63
2023-02-12T10:16:55.806Z,103136.81
2023-02-12T10:19:37.046Z,103133.09
2023-02-12T10:22:31.212Z,103128.88
2023-02-12T10:25:21.798Z,103136.94
2023-02-12T10:27:54.927Z,103127.56
2023-02-12T10:30:27.450Z,103125.00
2023-02-12T10:33:03.586Z,103125.03
2023-02-12T10:35:32.527Z,103127.13
2023-02-12T10:38:16.517Z,103124.41
2023-02-12T10:40:45.038Z,103131.38
2023-02-12T10:43:13.928Z,103122.88
2023-02-12T10:45:43.536Z,103124.97
2023-02-12T10:48:15.902Z,103124.13
2023-02-12T10:51:09.255Z,103119.91
2023-02-12T10:53:40.269Z,103119.88
2023-02-12T10:56:13.849Z,103125.00
2023-02-12T10:59:02.242Z,103118.19
2023-02-12T11:01:31.826Z,103124.75
2023-02-12T11:04:18.906Z,103116.00
2023-02-12T11:06:59.772Z,103114.72
2023-02-12T11:09:35.226Z,103101.75
2023-02-12T11:12:03.813Z,103103.78
2023-02-12T11:14:31.181Z,103098.56
2023-02-12T11:17:01.581Z,103101.75
2023-02-12T11:19:32.581Z,103101.59
2023-02-12T11:22:18.838Z,103101.44
2023-02-12T11:24:47.710Z,103086.34
2023-02-12T11:27:26.173Z,103094.59
2023-02-12T11:30:12.882Z,103074.38
2023-02-12T11:32:39.890Z,103082.63
2023-02-12T11:35:35.294Z,103085.47
2023-02-12T11:38:03.632Z,103072.09
2023-02-12T11:40:36.039Z,103075.88
2023-02-12T11:43:07.022Z,103072.88
2023-02-12T11:45:48.103Z,103072.13
2023-02-12T11:48:22.883Z,103059.53
2023-02-12T11:50:53.669Z,103054.19
2023-02-12T11:53:25.499Z,103051.38
2023-02-12T11:55:59.189Z,103041.84
2023-02-12T11:58:28.195Z,103045.31
2023-02-12T12:01:08.050Z,103042.91
2023-02-12T12:03:44.092Z,103036.00
2023-02-12T12:06:20.052Z,103031.47
2023-02-12T12:09:07.139Z,103041.34
2023-02-12T12:11:52.208Z,103041.31
2023-02-12T12:14:29.763Z,103036.91
2023-02-12T12:17:29.157Z,103040.31
2023-02-12T12:20:10.599Z,103041.28
2023-02-12T12:22:55.905Z,103027.44
2023-02-12T12:25:26.540Z,103032.09
2023-02-12T12:28:49.108Z,103025.81
2023-02-12T12:31:22.526Z,103024.25
2023-02-12T12:33:49.699Z,103022.78
2023-02-12T12:36:33.107Z,103013.38
2023-02-12T12:39:14.787Z,103008.09
2023-02-12T12:41:51.287Z,103021.59
2023-02-12T12:44:39.986Z,103012.47
2023-02-12T12:47:36.478Z,103030.56
2023-02-12T12:50:26.421Z,103012.19
2023-02-12T12:53:19.989Z,103007.53
2023-02-12T12:56:11.421Z,103016.66
2023-02-12T12:58:47.943Z,102998.63
2023-02-12T13:01:14.809Z,103006.22
2023-02-12T13:04:32.496Z,102992.41
2023-02-12T13:07:14.225Z,102990.69
2023-02-12T13:09:54.662Z,102992.44
2023-02-12T13:12:24.056Z,102988.78
2023-02-12T13:15:34.239Z,102978.88
2023-02-12T13:18:14.884Z,102982.91
2023-02-12T13:21:03.339Z,102980.28
2023-02-12T13:23:51.895Z,102971.19
2023-02-12T13:26:24.422Z,102972.13
2023-02-12T13:28:55.582Z,102973.72
2023-02-12T13:31:33.048Z,102977.69
2023-02-12T13:34:07.650Z,102961.91
2023-02-12T13:36:37.882Z,102966.06
2023-02-12T13:39:27.412Z,102964.69
2023-02-12T13:42:07.647Z,102951.94
2023-02-12T13:44:38.226Z,102943.81
2023-02-12T13:47:11.195Z,102955.69
2023-02-12T13:50:01.309Z,102965.88
2023-02-12T13:52:39.897Z,102947.84
2023-02-12T13:55:19.043Z,102952.91
2023-02-12T13:57:46.055Z,102954.78
2023-02-12T14:00:47.707Z,102946.72
2023-02-12T14:03:15.081Z,102939.00
2023-02-12T14:05:42.844Z,102941.97
2023-02-12T14:08:35.222Z,102938.22
2023-02-12T14:11:09.337Z,102942.13
2023-02-12T14:13:50.886Z,102944.19
2023-02-12T14:16:29.668Z,102938.75
2023-02-12T14:19:35.582Z,102941.06
2023-02-12T14:22:12.230Z,102946.72
2023-02-12T14:24:39.110Z,102946.13
2023-02-12T14:27:27.265Z,102940.94
2023-02-12T14:30:03.302Z,102946.66
2023-02-12T14:32:45.084Z,102948.72
2023-02-12T14:35:29.808Z,102944.66
2023-02-12T14:38:16.631Z,102932.78
2023-02-12T14:40:47.218Z,102931.91
2023-02-12T14:43:59.009Z,102945.44
2023-02-12T14:46:26.271Z,102935.69
2023-02-12T14:49:06.054Z,102936.75
2023-02-12T14:51:46.778Z,102930.69
2023-02-12T14:54:19.429Z,102930.84
2023-02-12T14:56:49.234Z,102936.38
2023-02-12T14:59:21.703Z,102932.66
2023-02-12T15:01:50.855Z,102932.47
2023-02-12T15:04:30.982Z,102929.78
2023-02-12T15:07:08.678Z,102925.69
2023-02-12T15:09:41.768Z,102946.22
2023-02-12T15:12:20.490Z,102926.47
2023-02-12T15:15:01.387Z,102932.34
2023-02-12T15:17:32.647Z,102925.53
2023-02-12T15:20:06.213Z,102921.75
2023-02-12T15:22:40.079Z,102925.25
2023-02-12T15:25:26.948Z,102936.25
2023-02-12T15:28:01.978Z,102930.94
2023-02-12T15:30:35.704Z,102934.66
2023-02-12T15:33:07.482Z,102936.16
2023-02-12T15:35:40.074Z,102927.00
2023-02-12T15:38:08.189Z,102934.66
2023-02-12T15:40:38.882Z,102924.75
2023-02-12T15:43:16.940Z,102930.47
2023-02-12T15:45:51.692Z,102930.78
2023-02-12T15:48:19.618Z,102926.03
2023-02-12T15:50:54.635Z,102935.38
2023-02-12T15:53:24.707Z,102940.41
2023-02-12T15:55:52.770Z,102944.22
2023-02-12T15:58:27.133Z,102938.03
2023-02-12T16:00:59.555Z,102937.09
2023-02-12T16:03:37.915Z,102931.75
2023-02-12T16:06:14.237Z,102946.69
2023-02-12T16:08:47.529Z,102948.56
2023-02-12T16:11:20.012Z,102926.81
2023-02-12T16:13:54.170Z,102945.22
2023-02-12T16:16:30.262Z,102937.81
2023-02-12T16:19:23.119Z,102938.09
2023-02-12T16:21:56.081Z,102943.75
2023-02-12T16:24:28.280Z,102952.72
2023-02-12T16:26:56.715Z,102944.75
2023-02-12T16:29:24.569Z,102952.84
2023-02-12T16:32:01.500Z,102953.44
2023-02-12T16:34:37.977Z,102949.84
2023-02-12T16:38:02.081Z,102961.25
2023-02-12T16:40:31.163Z,102976.09
2023-02-12T16:43:02.309Z,102961.44
2023-02-12T16:45:32.416Z,102971.38
2023-02-12T16:48:08.692Z,102971.63
2023-02-12T16:50:39.527Z,102980.75
2023-02-12T16:53:09.066Z,102993.19
2023-02-12T16:55:36.873Z,102987.84
2023-02-12T16:58:03.869Z,102989.72
2023-02-12T17:00:30.924Z,102990.56
2023-02-12T17:02:58.108Z,102986.25
2023-02-12T17:05:25.023Z,102994.22
2023-02-12T17:07:52.007Z,102997.00
2023-02-12T17:10:19.238Z,102993.34
2023-02-12T17:12:52.481Z,102996.78
2023-02-12T17:15:30.723Z,102998.69
2023-02-12T17:17:57.804Z,102995.34
2023-02-12T17:20:24.763Z,102998.81
2023-02-12T17:22:55.521Z,102999.88
2023-02-12T17:25:22.691Z,103002.81
2023-02-12T17:27:49.525Z,102996.63
2023-02-12T17:30:18.724Z,102999.50
2023-02-12T17:32:45.607Z,103005.78
2023-02-12T17:35:12.539Z,103001.38
2023-02-12T17:37:39.567Z,102999.78
2023-02-12T17:40:07.349Z,102995.56
2023-02-12T17:42:34.289Z,102992.56
2023-02-12T17:45:01.249Z,102992.56
2023-02-12T17:47:28.180Z,102995.47
2023-02-12T17:49:55.152Z,102993.72
2023-02-12T17:52:22.082Z,102993.88
2023-02-12T17:54:49.006Z,102993.94
2023-02-12T17:57:15.937Z,102993.09
2023-02-12T17:59:43.043Z,102994.09
2023-02-12T18:02:12.343Z,102994.16
2023-02-12T18:04:39.367Z,102999.69
2023-02-12T18:07:06.420Z,102998.09
2023-02-12T18:09:33.387Z,102997.22
2023-02-12T18:12:00.353Z,103003.44
2023-02-12T18:14:27.286Z,103006.16
2023-02-12T18:16:54.623Z,103009.78
2023-02-12T18:19:21.721Z,103017.72
2023-02-12T18:21:48.681Z,103010.41
2023-02-12T18:24:15.748Z,103011.16
2023-02-12T18:26:42.860Z,103013.38
2023-02-12T18:29:10.317Z,103013.66
2023-02-12T18:31:37.671Z,103010.28
2023-02-12T18:34:06.271Z,103014.63
2023-02-12T18:36:33.699Z,103006.94
2023-02-12T18:39:01.233Z,103014.03
2023-02-12T18:41:31.716Z,103022.97
2023-02-12T18:43:59.691Z,103026.78
2023-02-12T18:46:31.928Z,103009.28
2023-02-12T18:48:59.744Z,103010.91
2023-02-12T18:51:38.178Z,103016.25
2023-02-12T18:54:09.134Z,103017.03
2023-02-12T18:56:41.127Z,103017.22
2023-02-12T18:59:08.673Z,103022.56
2023-02-12T19:01:36.497Z,103023.44
2023-02-12T19:04:05.806Z,103027.03
2023-02-12T19:06:34.594Z,103029.69
2023-02-12T19:09:03.967Z,103030.50
2023-02-12T19:11:31.575Z,103031.44
2023-02-12T19:13:58.824Z,103034.94
2023-02-12T19:16:26.278Z,103029.59
2023-02-12T19:18:55.380Z,103032.25
2023-02-12T19:21:26.282Z,103027.03
2023-02-12T19:23:55.089Z,103029.63
2023-02-12T19:26:23.193Z,103035.97
2023-02-12T19:28:50.623Z,103034.28
2023-02-12T19:31:23.494Z,103035.34
2023-02-12T19:33:58.874Z,103041.72
2023-02-12T19:36:29.255Z,103036.56
2023-02-12T19:38:56.346Z,103045.63
2023-02-12T19:41:25.812Z,103046.59
2023-02-12T19:43:55.914Z,103044.09
2023-02-12T19:46:23.201Z,103053.16
2023-02-12T19:48:54.119Z,103046.19
2023-02-12T19:51:22.282Z,103050.72
2023-02-12T19:53:49.276Z,103045.50
2023-02-12T19:56:16.580Z,103057.22
2023-02-12T19:58:44.547Z,103048.50
2023-02-12T20:01:16.599Z,103046.97
2023-02-12T20:03:44.225Z,103055.06
2023-02-12T20:06:15.154Z,103055.22
2023-02-12T20:08:45.266Z,103058.97
2023-02-12T20:11:16.859Z,103059.19
2023-02-12T20:13:44.860Z,103059.53
2023-02-12T20:16:16.230Z,103067.66
2023-02-12T20:18:45.956Z,103064.31
2023-02-12T20:21:17.095Z,103066.09
2023-02-12T20:23:44.103Z,103078.63
2023-02-12T20:26:14.402Z,103075.13
2023-02-12T20:28:44.867Z,103082.34
2023-02-12T20:31:33.880Z,103073.63
2023-02-12T20:34:04.558Z,103079.88
2023-02-12T20:36:37.359Z,103084.47
2023-02-12T20:39:07.017Z,103083.63
2023-02-12T20:41:37.369Z,103083.16
2023-02-12T20:44:06.543Z,103078.72
2023-02-12T20:46:40.028Z,103086.00
2023-02-12T20:49:10.176Z,103084.28
2023-02-12T20:51:37.935Z,103088.97
2023-02-12T20:54:05.261Z,103088.97
2023-02-12T20:56:37.354Z,103089.03
2023-02-12T20:59:11.347Z,103087.41
2023-02-12T21:01:40.390Z,103094.59
2023-02-12T21:04:18.946Z,103092.94
2023-02-12T21:06:47.467Z,103089.56
2023-02-12T21:09:15.416Z,103097.59
2023-02-12T21:11:46.591Z,103088.75
2023-02-12T21:14:24.187Z,103099.53
2023-02-12T21:16:54.191Z,103098.81
2023-02-12T21:19:21.372Z,103097.09
2023-02-12T21:21:53.077Z,103105.09
2023-02-12T21:24:24.542Z,103097.19
2023-02-12T21:26:54.517Z,103092.97
2023-02-12T21:29:34.049Z,103102.19
2023-02-12T21:32:02.115Z,103089.84
2023-02-12T21:34:30.115Z,103091.78
2023-02-12T21:36:58.718Z,103090.94
2023-02-12T21:39:28.784Z,103099.78
2023-02-12T21:42:00.329Z,103095.47
2023-02-12T21:44:28.197Z,103088.28
2023-02-12T21:46:58.714Z,103091.06
2023-02-12T21:49:28.071Z,103090.44
2023-02-12T21:52:02.312Z,103092.19
2023-02-12T21:54:30.642Z,103091.38
2023-02-12T21:56:58.093Z,103099.34
2023-02-12T21:59:27.767Z,103086.97
2023-02-12T22:02:04.367Z,103098.56
2023-02-12T22:04:31.523Z,103103.06
2023-02-12T22:07:06.502Z,103102.22
2023-02-12T22:09:37.538Z,103097.81
2023-02-12T22:12:07.513Z,103096.06
2023-02-12T22:14:37.325Z,103103.22
2023-02-12T22:17:07.242Z,103096.13
2023-02-12T22:19:34.808Z,103110.34
2023-02-12T22:22:01.769Z,103109.50
2023-02-12T22:24:31.053Z,103115.69
2023-02-12T22:26:58.479Z,103118.44
2023-02-12T22:29:25.932Z,103112.28
2023-02-12T22:31:53.597Z,103114.97
2023-02-12T22:34:20.654Z,103115.91
2023-02-12T22:36:47.932Z,103113.31
2023-02-12T22:39:18.014Z,103106.28
2023-02-12T22:41:46.398Z,103116.06
2023-02-12T22:44:15.017Z,103120.56
2023-02-12T22:46:43.700Z,103121.50
2023-02-12T22:49:15.571Z,103117.09
2023-02-12T22:51:42.901Z,103112.75
2023-02-12T22:54:18.102Z,103115.44
2023-02-12T22:56:48.699Z,103114.66
2023-02-12T22:59:18.644Z,103117.38
2023-02-12T23:01:51.329Z,103100.69
2023-02-12T23:04:24.605Z,103115.81
2023-02-12T23:06:54.110Z,103121.16
2023-02-12T23:09:22.259Z,103108.75
2023-02-12T23:12:01.307Z,103102.59
2023-02-12T23:14:31.248Z,103105.31
2023-02-12T23:17:01.209Z,103109.72
2023-02-12T23:19:37.788Z,103111.53
2023-02-12T23:22:20.171Z,103110.69
2023-02-12T23:24:47.287Z,103109.88
2023-02-12T23:27:14.390Z,103102.84
2023-02-12T23:29:44.239Z,103108.16
2023-02-12T23:32:11.247Z,103106.38
2023-02-12T23:34:43.409Z,103116.13
2023-02-12T23:37:19.138Z,103109.03
2023-02-12T23:39:48.734Z,103103.78
2023-02-12T23:42:18.351Z,103109.09
2023-02-12T23:44:47.938Z,103102.94
2023-02-12T23:47:18.712Z,103112.78
2023-02-12T23:49:45.712Z,103109.28
2023-02-12T23:52:12.806Z,103109.38
2023-02-12T23:54:42.705Z,103112.06
2023-02-12T23:57:12.288Z,103112.13
2023-02-12T23:59:40.031Z,103107.72
